Time;durP1;ratioP1;P1;durP2;ratioP2;P2;SDS_P1;SDS_P2;PMS_P1;PMS_P2;Temp;Humidity;BMP_temperature;BMP_pressure;BME280_temperature;BME280_humidity;BME280_pressure;Samples;Min_cycle;Max_cycle;Signal;HPM_P1;HPM_P2
2023/12/15 00:01:54;;;;;;;6.35;4.30;;;;;;;;;;4993900;28;20054;-69
2023/12/15 00:04:19;;;;;;;6.18;4.28;;;;;;;;;;4994069;28;20028;-69
2023/12/15 00:06:45;;;;;;;5.40;4.60;;;;;;;;;;4994367;28;20065;-68
2023/12/15 00:09:10;;;;;;;6.18;4.53;;;;;;;;;;4994683;28;20064;-66
2023/12/15 00:11:36;;;;;;;6.22;4.78;;;;;;;;;;4994010;28;20371;-71
2023/12/15 00:14:01;;;;;;;4.80;4.20;;;;;;;;;;4994752;28;20027;-74
2023/12/15 00:16:27;;;;;;;6.60;4.40;;;;;;;;;;4994280;28;20030;-73
2023/12/15 00:18:52;;;;;;;4.38;3.97;;;;;;;;;;4994495;28;20451;-73
2023/12/15 00:21:18;;;;;;;5.15;4.35;;;;;;;;;;4994401;28;20022;-74
2023/12/15 00:23:43;;;;;;;5.03;4.53;;;;;;;;;;4992745;28;20097;-69
2023/12/15 09:54:13;;;;;;;3.90;3.38;;;;;;;;;;4892973;29;20525;-70
2023/12/15 09:56:39;;;;;;;3.10;2.80;;;;;;;;;;4896118;29;20041;-71
2023/12/15 09:59:05;;;;;;;3.10;2.80;;;;;;;;;;4896116;29;20124;-71
2023/12/15 10:01:31;;;;;;;4.43;2.78;;;;;;;;;;4896487;29;20439;-71
2023/12/15 10:03:57;;;;;;;3.08;2.78;;;;;;;;;;4893173;29;20420;-70
2023/12/15 10:06:24;;;;;;;2.97;2.70;;;;;;;;;;4895056;29;20059;-71
2023/12/15 10:08:49;;;;;;;2.95;2.67;;;;;;;;;;4889793;29;20025;-71
2023/12/15 10:11:16;;;;;;;3.60;3.25;;;;;;;;;;4887054;29;20025;-71
2023/12/15 10:13:42;;;;;;;3.30;3.00;;;;;;;;;;4888752;29;20028;-72
2023/12/15 10:16:11;;;;;;;3.08;2.80;;;;;;;;;;4894790;29;20055;-71
2023/12/15 10:18:40;;;;;;;3.40;3.10;;;;;;;;;;4895437;29;20072;-71
2023/12/15 10:21:06;;;;;;;3.20;2.90;;;;;;;;;;4894990;29;20020;-72
2023/12/15 10:23:32;;;;;;;3.17;2.88;;;;;;;;;;4890465;29;20111;-70
2023/12/15 10:26:05;;;;;;;3.83;3.05;;;;;;;;;;4889165;29;20100;-69
2023/12/15 10:28:38;;;;;;;3.70;3.20;;;;;;;;;;4892784;29;20040;-71
2023/12/15 10:31:05;;;;;;;3.30;3.00;;;;;;;;;;4889895;29;20025;-70
2023/12/15 10:33:32;;;;;;;3.10;2.80;;;;;;;;;;4894816;29;20028;-70
2023/12/15 10:36:00;;;;;;;2.72;2.53;;;;;;;;;;4895839;29;20065;-70
2023/12/15 10:38:27;;;;;;;3.20;2.90;;;;;;;;;;4897047;29;20075;-71
2023/12/15 10:40:54;;;;;;;3.35;3.00;;;;;;;;;;4897020;29;20032;-71
2023/12/15 10:43:21;;;;;;;3.55;3.25;;;;;;;;;;4897065;29;20031;-70
2023/12/15 10:45:47;;;;;;;3.38;3.08;;;;;;;;;;4896955;29;20032;-71
2023/12/15 10:48:13;;;;;;;3.30;3.00;;;;;;;;;;4897139;29;20043;-71
2023/12/15 10:50:42;;;;;;;3.40;3.10;;;;;;;;;;4897208;29;20031;-71
2023/12/15 10:53:09;;;;;;;3.28;2.97;;;;;;;;;;4908931;29;20048;-71
2023/12/15 10:55:36;;;;;;;3.50;3.03;;;;;;;;;;4915799;29;20446;-71
2023/12/15 10:58:06;;;;;;;4.05;3.58;;;;;;;;;;4915742;29;20115;-71
2023/12/15 11:00:32;;;;;;;3.50;3.07;;;;;;;;;;4916222;29;20043;-70
2023/12/15 11:02:58;;;;;;;3.08;2.75;;;;;;;;;;4918235;29;20473;-71
2023/12/15 11:05:26;;;;;;;3.10;2.80;;;;;;;;;;4918990;29;20090;-71
2023/12/15 11:07:53;;;;;;;3.30;3.00;;;;;;;;;;4919076;29;20064;-71
2023/12/15 11:10:18;;;;;;;3.42;3.10;;;;;;;;;;4919063;29;20024;-71
2023/12/15 11:12:44;;;;;;;3.10;2.90;;;;;;;;;;4918941;29;20505;-71
2023/12/15 11:15:11;;;;;;;3.75;3.08;;;;;;;;;;4918766;29;20050;-71
2023/12/15 11:17:46;;;;;;;3.50;3.03;;;;;;;;;;4917497;29;20087;-71
2023/12/15 11:20:31;;;;;;;3.45;2.85;;;;;;;;;;4917094;29;20020;-71
2023/12/15 11:22:57;;;;;;;3.40;2.70;;;;;;;;;;4916289;29;20039;-71
2023/12/15 11:25:30;;;;;;;2.95;2.72;;;;;;;;;;4917784;29;20477;-71
2023/12/15 11:28:09;;;;;;;3.17;2.83;;;;;;;;;;4900907;29;20461;-75
2023/12/15 11:30:44;;;;;;;2.70;2.50;;;;;;;;;;4916775;29;20028;-71
2023/12/15 11:33:24;;;;;;;3.33;3.03;;;;;;;;;;4916658;29;20589;-74
2023/12/15 11:36:07;;;;;;;2.60;2.40;;;;;;;;;;4917580;29;20039;-72
2023/12/15 11:38:34;;;;;;;2.67;2.47;;;;;;;;;;4901769;29;20442;-69
2023/12/15 11:41:01;;;;;;;12.95;3.22;;;;;;;;;;4918328;29;20104;-70
2023/12/15 11:43:31;;;;;;;5.80;3.38;;;;;;;;;;4918197;29;20032;-70
2023/12/15 11:45:57;;;;;;;5.18;3.50;;;;;;;;;;4913550;29;20039;-68
2023/12/15 11:48:24;;;;;;;4.07;3.45;;;;;;;;;;4917905;29;20020;-68
2023/12/15 11:50:49;;;;;;;4.97;3.80;;;;;;;;;;4917437;29;20032;-69
2023/12/15 11:53:15;;;;;;;11.43;3.80;;;;;;;;;;4917665;29;20048;-69
2023/12/15 11:55:42;;;;;;;4.15;3.35;;;;;;;;;;4918064;29;20067;-70
2023/12/15 11:58:11;;;;;;;4.82;3.63;;;;;;;;;;4918368;29;20056;-68
2023/12/15 12:00:37;;;;;;;5.70;3.83;;;;;;;;;;4918078;29;20035;-69
2023/12/15 12:03:03;;;;;;;5.72;3.72;;;;;;;;;;4917006;29;20024;-69
2023/12/15 12:05:30;;;;;;;5.70;4.00;;;;;;;;;;4917714;29;20048;-69
2023/12/15 12:07:58;;;;;;;5.05;3.40;;;;;;;;;;4914771;29;20769;-71
2023/12/15 12:10:31;;;;;;;5.13;3.40;;;;;;;;;;4916562;29;20032;-70
2023/12/15 12:12:59;;;;;;;5.18;3.70;;;;;;;;;;4915257;29;20039;-70
2023/12/15 12:15:26;;;;;;;5.72;3.70;;;;;;;;;;4915979;29;20274;-69
2023/12/15 12:17:52;;;;;;;6.35;3.28;;;;;;;;;;4917075;29;20028;-69
2023/12/15 12:20:18;;;;;;;5.15;3.53;;;;;;;;;;4917513;29;20084;-70
2023/12/15 12:22:45;;;;;;;4.65;3.38;;;;;;;;;;4916786;29;20020;-69
2023/12/15 12:25:12;;;;;;;4.13;3.47;;;;;;;;;;4917762;29;20031;-69
2023/12/15 12:27:37;;;;;;;5.78;3.40;;;;;;;;;;4917590;29;20028;-70
2023/12/15 12:30:11;;;;;;;6.50;3.53;;;;;;;;;;4917388;29;20028;-69
2023/12/15 12:32:38;;;;;;;5.07;3.45;;;;;;;;;;4917506;29;20042;-69
2023/12/15 12:35:04;;;;;;;5.80;3.20;;;;;;;;;;4917356;29;20437;-69
2023/12/15 12:37:31;;;;;;;4.97;3.40;;;;;;;;;;4917368;29;20380;-69
2023/12/15 12:40:04;;;;;;;3.80;3.28;;;;;;;;;;4917382;29;20024;-69
2023/12/15 12:42:30;;;;;;;4.50;3.22;;;;;;;;;;4917531;29;20103;-69
2023/12/15 12:44:56;;;;;;;3.50;3.15;;;;;;;;;;4917205;29;20044;-69
2023/12/15 12:47:22;;;;;;;5.53;3.67;;;;;;;;;;4917453;29;20102;-69
2023/12/15 12:49:48;;;;;;;4.35;3.15;;;;;;;;;;4917121;29;20548;-69
2023/12/15 12:52:13;;;;;;;4.72;3.55;;;;;;;;;;4917049;29;20401;-69
2023/12/15 12:54:39;;;;;;;4.40;3.28;;;;;;;;;;4917258;29;20063;-69
2023/12/15 12:57:05;;;;;;;5.43;3.78;;;;;;;;;;4917997;29;20582;-69
2023/12/15 12:59:31;;;;;;;3.90;3.40;;;;;;;;;;4917190;29;20033;-69
2023/12/15 13:01:57;;;;;;;4.68;3.28;;;;;;;;;;4917148;29;20088;-69
2023/12/15 13:04:23;;;;;;;5.22;3.50;;;;;;;;;;4916852;29;20032;-69
2023/12/15 13:06:49;;;;;;;4.13;3.30;;;;;;;;;;4916915;29;20025;-70
2023/12/15 13:09:18;;;;;;;3.75;3.17;;;;;;;;;;4917503;29;20064;-69
2023/12/15 13:11:47;;;;;;;3.85;3.08;;;;;;;;;;4916801;29;20039;-69
2023/12/15 13:14:13;;;;;;;4.95;3.33;;;;;;;;;;4916883;29;20032;-69
2023/12/15 13:16:39;;;;;;;4.65;3.42;;;;;;;;;;4916651;29;20035;-69
2023/12/15 13:19:05;;;;;;;4.15;3.15;;;;;;;;;;4917582;29;20435;-69
2023/12/15 13:21:31;;;;;;;6.00;3.88;;;;;;;;;;4916676;29;20031;-69
2023/12/15 13:23:56;;;;;;;5.57;3.60;;;;;;;;;;4916537;29;20389;-69
2023/12/15 13:26:22;;;;;;;4.05;3.22;;;;;;;;;;4916552;29;20048;-68
2023/12/15 13:28:48;;;;;;;5.50;3.33;;;;;;;;;;4916590;29;20035;-68
2023/12/15 13:31:14;;;;;;;3.80;2.95;;;;;;;;;;4916488;29;20032;-68
2023/12/15 13:33:45;;;;;;;3.35;2.90;;;;;;;;;;4916447;29;20028;-68
2023/12/15 13:36:12;;;;;;;5.22;3.42;;;;;;;;;;4916436;29;20028;-68
2023/12/15 13:38:38;;;;;;;4.90;3.17;;;;;;;;;;4916441;29;20380;-68
2023/12/15 13:41:03;;;;;;;5.03;3.40;;;;;;;;;;4916343;29;20028;-68
2023/12/15 13:43:29;;;;;;;5.72;3.00;;;;;;;;;;4916362;29;20020;-68
2023/12/15 13:45:55;;;;;;;3.70;3.25;;;;;;;;;;4916570;29;20024;-68
2023/12/15 13:48:21;;;;;;;4.28;3.30;;;;;;;;;;4916291;29;20060;-68
2023/12/15 13:50:46;;;;;;;4.95;3.70;;;;;;;;;;4915760;29;20168;-69
2023/12/15 13:53:12;;;;;;;5.15;3.33;;;;;;;;;;4915872;29;20044;-68
2023/12/15 13:55:39;;;;;;;6.00;3.60;;;;;;;;;;4916094;29;20043;-68
2023/12/15 13:58:05;;;;;;;5.55;3.53;;;;;;;;;;4916227;29;20028;-68
2023/12/15 14:00:31;;;;;;;5.05;3.55;;;;;;;;;;4916189;29;20055;-68
2023/12/15 14:02:57;;;;;;;5.50;3.78;;;;;;;;;;4916188;29;20032;-69
2023/12/15 14:05:22;;;;;;;4.85;3.63;;;;;;;;;;4916186;29;20030;-71
2023/12/15 14:07:48;;;;;;;6.78;4.00;;;;;;;;;;4915456;29;20020;-69
2023/12/15 14:10:13;;;;;;;4.70;3.35;;;;;;;;;;4915909;29;20032;-69
2023/12/15 14:12:39;;;;;;;5.65;3.50;;;;;;;;;;4917193;29;20032;-69
2023/12/15 14:15:06;;;;;;;4.90;3.58;;;;;;;;;;4916202;29;20039;-70
2023/12/15 14:17:32;;;;;;;4.65;3.53;;;;;;;;;;4914767;29;20469;-70
2023/12/15 14:19:58;;;;;;;5.38;3.72;;;;;;;;;;4914855;29;20119;-70
2023/12/15 14:22:24;;;;;;;6.22;3.53;;;;;;;;;;4916404;29;20449;-70
2023/12/15 14:24:49;;;;;;;5.57;3.67;;;;;;;;;;4916242;29;20562;-69
2023/12/15 14:27:15;;;;;;;4.10;3.25;;;;;;;;;;4916026;29;20035;-70
2023/12/15 14:29:41;;;;;;;6.07;3.80;;;;;;;;;;4916168;29;20056;-69
2023/12/15 14:32:06;;;;;;;4.30;3.33;;;;;;;;;;4916348;29;20036;-70
2023/12/15 14:34:32;;;;;;;6.25;3.75;;;;;;;;;;4916150;29;20024;-70
2023/12/15 14:36:58;;;;;;;5.75;3.95;;;;;;;;;;4918354;29;20389;-69
2023/12/15 14:39:26;;;;;;;7.90;3.78;;;;;;;;;;4919620;29;20594;-70
2023/12/15 14:41:55;;;;;;;3.92;3.40;;;;;;;;;;4919551;29;20028;-70
2023/12/15 14:44:20;;;;;;;5.20;3.22;;;;;;;;;;4919587;29;20465;-69
2023/12/15 14:46:46;;;;;;;5.35;3.50;;;;;;;;;;4919357;29;20119;-70
2023/12/15 14:49:12;;;;;;;5.45;3.58;;;;;;;;;;4919322;29;20048;-70
2023/12/15 14:51:37;;;;;;;5.13;3.70;;;;;;;;;;4919321;29;20032;-69
2023/12/15 14:54:03;;;;;;;4.22;3.67;;;;;;;;;;4919091;29;20489;-70
2023/12/15 14:56:28;;;;;;;4.43;3.60;;;;;;;;;;4919559;29;20087;-70
2023/12/15 14:58:54;;;;;;;7.55;3.53;;;;;;;;;;4919073;29;20032;-70
2023/12/15 15:01:19;;;;;;;4.65;3.60;;;;;;;;;;4919149;29;20047;-69
2023/12/15 15:03:48;;;;;;;3.70;3.40;;;;;;;;;;4919059;29;20028;-70
2023/12/15 15:06:17;;;;;;;5.43;3.63;;;;;;;;;;4919019;29;20127;-70
2023/12/15 15:08:43;;;;;;;4.25;3.33;;;;;;;;;;4919293;29;20121;-69
2023/12/15 15:11:11;;;;;;;4.72;3.35;;;;;;;;;;4919231;29;20103;-69
2023/12/15 15:13:37;;;;;;;4.85;3.78;;;;;;;;;;4918761;29;20024;-69
2023/12/15 15:16:03;;;;;;;4.72;3.13;;;;;;;;;;4918829;29;20036;-70
2023/12/15 15:18:28;;;;;;;5.32;3.50;;;;;;;;;;4918744;29;20473;-70
2023/12/15 15:20:54;;;;;;;5.10;4.05;;;;;;;;;;4918813;29;20028;-69
2023/12/15 15:23:19;;;;;;;4.20;3.40;;;;;;;;;;4902057;29;20039;-69
2023/12/15 15:25:46;;;;;;;4.93;3.80;;;;;;;;;;4918935;29;20060;-70
2023/12/15 15:28:11;;;;;;;4.20;3.45;;;;;;;;;;4901670;29;20392;-71
2023/12/15 15:30:38;;;;;;;6.35;4.28;;;;;;;;;;4919370;29;20043;-71
2023/12/15 15:33:04;;;;;;;4.82;3.50;;;;;;;;;;4918659;29;20052;-70
2023/12/15 15:35:29;;;;;;;4.72;3.58;;;;;;;;;;4918493;29;20115;-71
2023/12/15 15:37:55;;;;;;;5.60;3.75;;;;;;;;;;4919474;29;20076;-71
2023/12/15 15:40:20;;;;;;;4.30;3.22;;;;;;;;;;4918443;29;20104;-70
2023/12/15 15:42:46;;;;;;;3.72;3.30;;;;;;;;;;4918399;29;20499;-70
2023/12/15 15:45:11;;;;;;;4.93;3.67;;;;;;;;;;4918394;29;20032;-70
2023/12/15 15:47:37;;;;;;;4.78;3.35;;;;;;;;;;4917230;29;20028;-69
2023/12/15 15:50:06;;;;;;;5.63;4.03;;;;;;;;;;4918258;29;20024;-69
2023/12/15 15:52:32;;;;;;;5.22;3.85;;;;;;;;;;4918159;29;20111;-69
2023/12/15 15:54:57;;;;;;;3.88;3.35;;;;;;;;;;4918095;29;20024;-70
2023/12/15 15:57:23;;;;;;;4.15;3.75;;;;;;;;;;4918093;29;20051;-69
2023/12/15 15:59:48;;;;;;;4.35;3.72;;;;;;;;;;4918097;29;20067;-69
2023/12/15 16:02:14;;;;;;;4.40;3.40;;;;;;;;;;4917967;29;20115;-69
2023/12/15 16:04:40;;;;;;;4.10;3.53;;;;;;;;;;4918880;29;20082;-69
2023/12/15 16:07:05;;;;;;;5.25;3.78;;;;;;;;;;4916681;29;20077;-70
2023/12/15 16:09:30;;;;;;;4.20;3.60;;;;;;;;;;4917814;29;20028;-69
2023/12/15 16:11:56;;;;;;;5.05;3.70;;;;;;;;;;4918272;29;20036;-70
2023/12/15 16:14:21;;;;;;;4.90;3.97;;;;;;;;;;4917807;29;20491;-71
2023/12/15 16:16:47;;;;;;;4.15;3.50;;;;;;;;;;4917780;29;20051;-69
2023/12/15 16:19:14;;;;;;;5.15;3.53;;;;;;;;;;4918768;29;20046;-70
2023/12/15 16:21:40;;;;;;;4.97;3.60;;;;;;;;;;4916515;29;20035;-69
2023/12/15 16:24:07;;;;;;;5.45;3.90;;;;;;;;;;4917623;29;20028;-70
2023/12/15 16:26:33;;;;;;;4.20;3.30;;;;;;;;;;4917631;29;20028;-69
2023/12/15 16:28:58;;;;;;;4.70;3.53;;;;;;;;;;4917484;29;20103;-69
2023/12/15 16:31:24;;;;;;;6.32;3.50;;;;;;;;;;4917722;29;20043;-69
2023/12/15 16:33:51;;;;;;;4.78;3.63;;;;;;;;;;4917656;29;20028;-69
2023/12/15 16:36:21;;;;;;;4.93;3.40;;;;;;;;;;4917315;29;20028;-70
2023/12/15 16:38:47;;;;;;;5.60;3.65;;;;;;;;;;4917368;29;20388;-69
2023/12/15 16:41:26;;;;;;;4.53;3.30;;;;;;;;;;4918699;29;20016;-69
2023/12/15 16:43:53;;;;;;;4.22;3.45;;;;;;;;;;4917351;29;20066;-69
2023/12/15 16:46:19;;;;;;;4.18;3.45;;;;;;;;;;4917226;29;20055;-69
2023/12/15 16:48:51;;;;;;;4.57;3.38;;;;;;;;;;4917494;29;20074;-70
2023/12/15 16:51:21;;;;;;;4.40;3.30;;;;;;;;;;4918199;29;20032;-70
2023/12/15 16:53:47;;;;;;;5.60;3.33;;;;;;;;;;4916967;29;20059;-69
2023/12/15 16:56:13;;;;;;;4.25;3.42;;;;;;;;;;4917035;29;20548;-71
2023/12/15 16:58:39;;;;;;;5.78;3.67;;;;;;;;;;4916666;29;20026;-70
2023/12/15 17:01:06;;;;;;;4.38;3.50;;;;;;;;;;4917240;29;20430;-70
2023/12/15 17:03:31;;;;;;;5.13;3.30;;;;;;;;;;4916920;29;20032;-70
2023/12/15 17:05:57;;;;;;;5.78;3.50;;;;;;;;;;4917135;29;20028;-70
2023/12/15 17:08:22;;;;;;;4.28;3.53;;;;;;;;;;4916897;29;20036;-72
2023/12/15 17:10:48;;;;;;;3.92;3.28;;;;;;;;;;4916832;29;20055;-70
2023/12/15 17:13:13;;;;;;;4.20;3.22;;;;;;;;;;4916693;29;20020;-71
2023/12/15 17:15:39;;;;;;;4.60;3.75;;;;;;;;;;4916688;29;20032;-72
2023/12/15 17:18:05;;;;;;;4.32;3.38;;;;;;;;;;4916699;29;20393;-70
2023/12/15 17:20:31;;;;;;;3.50;3.20;;;;;;;;;;4917725;29;20036;-70
2023/12/15 17:22:57;;;;;;;5.50;3.60;;;;;;;;;;4916773;29;20036;-70
2023/12/15 17:25:23;;;;;;;4.28;3.35;;;;;;;;;;4916622;29;20040;-70
2023/12/15 17:27:49;;;;;;;4.60;3.50;;;;;;;;;;4916528;29;20027;-71
2023/12/15 17:30:14;;;;;;;3.50;3.20;;;;;;;;;;4916843;29;20038;-70
2023/12/15 17:32:41;;;;;;;3.97;3.28;;;;;;;;;;4916756;29;20032;-70
2023/12/15 17:35:09;;;;;;;3.75;2.95;;;;;;;;;;4916270;29;20032;-69
2023/12/15 17:37:35;;;;;;;3.53;3.00;;;;;;;;;;4916678;29;20056;-69
2023/12/15 17:40:01;;;;;;;4.20;3.25;;;;;;;;;;4916378;29;20032;-69
2023/12/15 17:42:27;;;;;;;5.10;3.05;;;;;;;;;;4916620;29;20091;-69
2023/12/15 17:44:52;;;;;;;4.28;3.10;;;;;;;;;;4916560;29;20362;-70
2023/12/15 17:47:18;;;;;;;4.80;3.75;;;;;;;;;;4916293;29;20082;-69
2023/12/15 17:49:44;;;;;;;5.00;3.63;;;;;;;;;;4917252;28;20028;-69
2023/12/15 17:52:09;;;;;;;4.57;3.22;;;;;;;;;;4916043;29;20044;-69
2023/12/15 17:54:35;;;;;;;4.95;3.30;;;;;;;;;;4912768;29;20046;-70
2023/12/15 17:57:00;;;;;;;4.50;3.50;;;;;;;;;;4913957;29;20028;-70
2023/12/15 17:59:26;;;;;;;4.53;3.22;;;;;;;;;;4915942;29;20043;-71
2023/12/15 18:01:51;;;;;;;5.70;3.22;;;;;;;;;;4915988;29;20027;-72
2023/12/15 18:04:17;;;;;;;3.30;3.00;;;;;;;;;;4916270;29;20031;-69
2023/12/15 18:06:42;;;;;;;6.07;4.15;;;;;;;;;;4916405;29;20092;-71
2023/12/15 18:09:09;;;;;;;4.28;3.20;;;;;;;;;;4916276;29;20032;-71
2023/12/15 18:11:36;;;;;;;4.43;3.47;;;;;;;;;;4918016;29;20028;-70
2023/12/15 18:14:04;;;;;;;5.18;3.50;;;;;;;;;;4901980;29;20043;-70
2023/12/15 18:16:29;;;;;;;4.03;3.30;;;;;;;;;;4912602;29;20516;-70
2023/12/15 18:18:56;;;;;;;5.55;3.40;;;;;;;;;;4919738;29;20059;-69
2023/12/15 18:21:22;;;;;;;4.93;3.33;;;;;;;;;;4920183;29;20067;-69
2023/12/15 18:23:47;;;;;;;4.85;3.58;;;;;;;;;;4919554;29;20055;-70
2023/12/15 18:26:14;;;;;;;4.53;3.53;;;;;;;;;;4919926;29;20032;-69
2023/12/15 18:28:40;;;;;;;4.90;3.50;;;;;;;;;;4919751;29;20047;-69
2023/12/15 18:31:05;;;;;;;6.38;3.40;;;;;;;;;;4918791;29;20164;-70
2023/12/15 18:33:31;;;;;;;4.25;3.65;;;;;;;;;;4919521;29;20103;-70
2023/12/15 18:35:56;;;;;;;5.25;3.60;;;;;;;;;;4919448;29;20121;-70
2023/12/15 18:38:34;;;;;;;6.28;4.10;;;;;;;;;;4919395;29;20028;-69
2023/12/15 18:41:00;;;;;;;6.75;3.85;;;;;;;;;;4919500;29;20028;-71
2023/12/15 18:43:25;;;;;;;4.45;3.40;;;;;;;;;;4919412;29;20067;-70
2023/12/15 18:45:52;;;;;;;6.28;3.40;;;;;;;;;;4919132;29;20028;-71
2023/12/15 18:48:18;;;;;;;4.85;3.83;;;;;;;;;;4919320;29;20020;-69
2023/12/15 18:50:43;;;;;;;9.98;3.67;;;;;;;;;;4902355;29;20374;-70
2023/12/15 18:53:10;;;;;;;5.00;4.07;;;;;;;;;;4918711;29;20055;-71
2023/12/15 18:55:36;;;;;;;4.57;3.70;;;;;;;;;;4919003;29;20032;-71
2023/12/15 18:58:01;;;;;;;4.55;3.30;;;;;;;;;;4918933;29;20024;-72
2023/12/15 19:00:27;;;;;;;5.82;3.60;;;;;;;;;;4919000;29;20035;-71
2023/12/15 19:02:53;;;;;;;6.15;3.03;;;;;;;;;;4919036;29;20027;-72
2023/12/15 19:05:19;;;;;;;3.92;3.22;;;;;;;;;;4919001;29;20492;-72
2023/12/15 19:07:45;;;;;;;4.63;3.38;;;;;;;;;;4918187;29;20088;-71
2023/12/15 19:10:11;;;;;;;6.95;3.10;;;;;;;;;;4919163;29;20024;-71
2023/12/15 19:12:37;;;;;;;5.50;3.25;;;;;;;;;;4918997;29;20028;-71
2023/12/15 19:15:06;;;;;;;7.15;3.38;;;;;;;;;;4918366;29;20032;-70
2023/12/15 19:17:32;;;;;;;3.75;3.20;;;;;;;;;;4917041;29;20047;-71
2023/12/15 19:19:57;;;;;;;7.13;4.05;;;;;;;;;;4918429;29;20040;-71
2023/12/15 19:22:23;;;;;;;4.38;3.17;;;;;;;;;;4918559;29;20028;-72
2023/12/15 19:24:49;;;;;;;7.22;3.90;;;;;;;;;;4918714;29;20047;-70
2023/12/15 19:27:15;;;;;;;5.55;3.25;;;;;;;;;;4919144;29;20024;-70
2023/12/15 19:29:40;;;;;;;6.78;3.30;;;;;;;;;;4918797;29;20087;-71
2023/12/15 19:32:06;;;;;;;4.63;3.28;;;;;;;;;;4918783;29;20027;-70
2023/12/15 19:34:34;;;;;;;5.82;3.53;;;;;;;;;;4918207;29;20103;-72
2023/12/15 19:37:01;;;;;;;5.18;3.38;;;;;;;;;;4918494;29;20444;-72
2023/12/15 19:39:27;;;;;;;4.20;3.22;;;;;;;;;;4918543;29;20035;-70
2023/12/15 19:41:52;;;;;;;5.28;3.58;;;;;;;;;;4918209;29;20024;-71
2023/12/15 19:44:18;;;;;;;10.00;3.30;;;;;;;;;;4918273;29;20024;-71
2023/12/15 19:46:44;;;;;;;7.30;3.85;;;;;;;;;;4918312;29;20490;-72
2023/12/15 19:49:09;;;;;;;5.72;3.03;;;;;;;;;;4918187;29;20483;-71
2023/12/15 19:51:35;;;;;;;5.22;3.25;;;;;;;;;;4918412;29;20114;-71
2023/12/15 19:54:01;;;;;;;7.72;3.13;;;;;;;;;;4917962;29;20056;-71
2023/12/15 19:56:28;;;;;;;4.45;2.95;;;;;;;;;;4918019;29;20032;-71
2023/12/15 19:58:56;;;;;;;5.82;2.67;;;;;;;;;;4917912;29;20028;-72
2023/12/15 20:01:28;;;;;;;5.15;3.50;;;;;;;;;;4918239;29;20027;-71
2023/12/15 20:03:58;;;;;;;5.00;3.03;;;;;;;;;;4917872;29;20102;-70
2023/12/15 20:06:27;;;;;;;6.65;3.08;;;;;;;;;;4918230;29;20038;-71
2023/12/15 20:08:52;;;;;;;3.72;2.83;;;;;;;;;;4918181;29;20044;-72
2023/12/15 20:11:18;;;;;;;4.40;3.20;;;;;;;;;;4918067;29;20028;-69
2023/12/15 20:13:44;;;;;;;3.67;2.92;;;;;;;;;;4917536;29;20670;-69
2023/12/15 20:16:10;;;;;;;4.30;3.00;;;;;;;;;;4917726;29;20029;-70
2023/12/15 20:18:36;;;;;;;6.15;3.10;;;;;;;;;;4917607;29;20039;-69
2023/12/15 20:21:03;;;;;;;3.97;3.35;;;;;;;;;;4917833;29;20035;-69
2023/12/15 20:23:30;;;;;;;6.82;3.22;;;;;;;;;;4917695;29;20077;-69
2023/12/15 20:25:55;;;;;;;3.20;2.88;;;;;;;;;;4917413;29;20099;-70
2023/12/15 20:28:21;;;;;;;5.55;3.25;;;;;;;;;;4917451;29;20112;-70
2023/12/15 20:30:47;;;;;;;4.82;2.97;;;;;;;;;;4917412;29;20040;-71
2023/12/15 20:33:13;;;;;;;4.85;3.47;;;;;;;;;;4916747;29;20047;-71
2023/12/15 20:35:39;;;;;;;4.60;3.15;;;;;;;;;;4917311;29;20453;-69
2023/12/15 20:38:07;;;;;;;5.25;3.75;;;;;;;;;;4917110;29;20032;-70
2023/12/15 20:40:33;;;;;;;8.88;3.05;;;;;;;;;;4917237;29;20032;-71
2023/12/15 20:42:58;;;;;;;5.32;3.33;;;;;;;;;;4917102;29;20382;-71
2023/12/15 20:45:24;;;;;;;5.63;3.75;;;;;;;;;;4917357;29;20072;-70
2023/12/15 20:47:49;;;;;;;4.35;3.10;;;;;;;;;;4916966;29;20032;-70
2023/12/15 20:50:15;;;;;;;9.73;3.40;;;;;;;;;;4916918;29;20028;-71
2023/12/15 20:52:41;;;;;;;4.63;3.88;;;;;;;;;;4916973;29;20055;-71
2023/12/15 20:55:12;;;;;;;4.10;2.97;;;;;;;;;;4916997;29;20040;-72
2023/12/15 20:57:39;;;;;;;6.28;2.92;;;;;;;;;;4917321;29;20064;-72
2023/12/15 21:00:07;;;;;;;6.93;3.08;;;;;;;;;;4916881;29;20110;-70
2023/12/15 21:02:36;;;;;;;4.15;3.10;;;;;;;;;;4917247;29;20084;-69
2023/12/15 21:05:07;;;;;;;3.80;2.80;;;;;;;;;;4916977;29;20060;-70
2023/12/15 21:07:33;;;;;;;5.40;3.45;;;;;;;;;;4916836;29;20032;-70
2023/12/15 21:09:58;;;;;;;4.80;3.42;;;;;;;;;;4916819;29;20024;-69
2023/12/15 21:12:23;;;;;;;6.60;3.35;;;;;;;;;;4917025;29;20040;-70
2023/12/15 21:14:49;;;;;;;3.70;3.00;;;;;;;;;;4916939;29;20462;-70
2023/12/15 21:17:15;;;;;;;7.15;3.33;;;;;;;;;;4916716;29;20032;-71
2023/12/15 21:19:44;;;;;;;4.28;3.17;;;;;;;;;;4916709;29;20056;-71
2023/12/15 21:22:09;;;;;;;4.18;3.25;;;;;;;;;;4916080;29;20091;-70
2023/12/15 21:24:35;;;;;;;4.28;3.22;;;;;;;;;;4916576;29;20028;-72
2023/12/15 21:27:01;;;;;;;4.43;2.97;;;;;;;;;;4916628;29;20426;-70
2023/12/15 21:29:27;;;;;;;4.18;3.17;;;;;;;;;;4916346;29;20115;-71
2023/12/15 21:31:56;;;;;;;4.15;2.83;;;;;;;;;;4916580;29;20766;-71
2023/12/15 21:34:24;;;;;;;4.13;3.00;;;;;;;;;;4916843;29;20095;-71
2023/12/15 21:36:50;;;;;;;4.28;3.05;;;;;;;;;;4916386;29;20583;-71
2023/12/15 21:39:15;;;;;;;6.00;3.05;;;;;;;;;;4916322;29;20032;-71
2023/12/15 21:41:41;;;;;;;4.57;3.50;;;;;;;;;;4900900;29;20079;-72
2023/12/15 21:44:07;;;;;;;3.47;2.75;;;;;;;;;;4897073;29;20029;-71
2023/12/15 21:46:37;;;;;;;4.13;2.88;;;;;;;;;;4879733;29;20036;-72
2023/12/15 21:49:03;;;;;;;;;;;;;;;;;;4896674;29;20029;-70
2023/12/15 21:51:30;;;;;;;6.57;2.90;;;;;;;;;;4897344;29;20321;-71
2023/12/15 21:53:56;;;;;;;3.63;3.03;;;;;;;;;;4896949;29;20052;-72
2023/12/15 21:56:22;;;;;;;9.55;3.10;;;;;;;;;;4897248;29;20033;-71
2023/12/15 21:58:47;;;;;;;3.15;2.67;;;;;;;;;;4897209;29;20025;-72
2023/12/15 22:01:14;;;;;;;3.78;2.80;;;;;;;;;;4897585;29;20028;-70
2023/12/15 22:03:41;;;;;;;4.38;3.00;;;;;;;;;;4897242;29;20029;-72
2023/12/15 22:06:09;;;;;;;5.15;3.13;;;;;;;;;;4897490;29;20059;-70
2023/12/15 22:08:35;;;;;;;3.25;2.80;;;;;;;;;;4897228;29;20385;-71
2023/12/15 22:11:00;;;;;;;7.68;3.00;;;;;;;;;;4897491;29;20032;-72
2023/12/15 22:13:26;;;;;;;3.58;2.63;;;;;;;;;;4897143;29;20032;-71
2023/12/15 22:15:51;;;;;;;9.48;3.15;;;;;;;;;;4895581;29;20606;-72
2023/12/15 22:18:19;;;;;;;5.38;2.67;;;;;;;;;;4880604;29;20367;-71
2023/12/15 22:20:45;;;;;;;3.63;3.00;;;;;;;;;;4897081;29;20017;-72
2023/12/15 22:23:12;;;;;;;5.45;3.00;;;;;;;;;;4896917;29;20087;-72
2023/12/15 22:25:38;;;;;;;4.60;3.10;;;;;;;;;;4896881;29;20028;-72
2023/12/15 22:28:04;;;;;;;4.72;2.90;;;;;;;;;;4897199;29;20447;-73
2023/12/15 22:30:30;;;;;;;3.78;2.88;;;;;;;;;;4896919;29;20077;-73
2023/12/15 22:32:56;;;;;;;6.45;3.10;;;;;;;;;;4896857;29;20036;-71
2023/12/15 22:35:21;;;;;;;6.13;3.70;;;;;;;;;;4896884;29;20084;-70
2023/12/15 22:37:47;;;;;;;4.53;3.20;;;;;;;;;;4903845;29;20385;-72
2023/12/15 22:40:12;;;;;;;3.97;2.70;;;;;;;;;;4912151;29;20028;-71
2023/12/15 22:42:38;;;;;;;4.13;3.20;;;;;;;;;;4905055;29;20462;-71
2023/12/15 22:45:04;;;;;;;5.18;3.15;;;;;;;;;;4903119;29;20083;-70
2023/12/15 22:47:30;;;;;;;7.20;3.10;;;;;;;;;;4896739;29;20079;-71
2023/12/15 22:49:56;;;;;;;4.45;2.92;;;;;;;;;;4896644;29;20116;-71
2023/12/15 22:52:22;;;;;;;3.85;3.00;;;;;;;;;;4896069;29;20056;-69
2023/12/15 22:54:47;;;;;;;5.60;3.30;;;;;;;;;;4896212;29;20499;-69
2023/12/15 22:57:13;;;;;;;4.03;3.10;;;;;;;;;;4897153;29;20107;-71
2023/12/15 22:59:39;;;;;;;6.50;2.90;;;;;;;;;;4899728;29;20028;-69
2023/12/15 23:02:04;;;;;;;2.90;2.60;;;;;;;;;;4899109;29;20037;-70
2023/12/15 23:04:30;;;;;;;7.75;3.00;;;;;;;;;;4899354;29;20040;-70
2023/12/15 23:06:55;;;;;;;5.90;3.08;;;;;;;;;;4899274;29;20033;-69
2023/12/15 23:09:21;;;;;;;3.28;2.90;;;;;;;;;;4899341;29;20036;-69
2023/12/15 23:11:46;;;;;;;3.47;2.83;;;;;;;;;;4899339;29;20449;-69
2023/12/15 23:14:12;;;;;;;7.28;3.42;;;;;;;;;;4899069;29;20025;-69
2023/12/15 23:16:38;;;;;;;4.20;3.30;;;;;;;;;;4899004;29;20111;-69
2023/12/15 23:19:05;;;;;;;4.55;3.08;;;;;;;;;;4899068;29;20081;-70
2023/12/15 23:21:31;;;;;;;4.30;2.72;;;;;;;;;;4900427;29;20068;-70
2023/12/15 23:23:56;;;;;;;3.30;2.88;;;;;;;;;;4899540;29;20045;-71
2023/12/15 23:26:23;;;;;;;4.47;3.05;;;;;;;;;;4899646;29;20379;-72
2023/12/15 23:28:48;;;;;;;5.85;3.33;;;;;;;;;;4899069;29;20028;-72
2023/12/15 23:31:14;;;;;;;3.40;2.80;;;;;;;;;;4899384;29;20042;-72
2023/12/15 23:33:39;;;;;;;3.95;2.83;;;;;;;;;;4898931;29;20047;-70
2023/12/15 23:36:13;;;;;;;4.53;2.90;;;;;;;;;;4898780;29;20397;-69
2023/12/15 23:38:40;;;;;;;3.45;3.15;;;;;;;;;;4898806;29;20482;-68
2023/12/15 23:41:05;;;;;;;3.55;2.92;;;;;;;;;;4901079;29;20092;-68
2023/12/15 23:43:31;;;;;;;5.25;2.80;;;;;;;;;;4907812;29;20032;-69
2023/12/15 23:45:58;;;;;;;4.78;3.30;;;;;;;;;;4907467;29;20028;-69
2023/12/15 23:48:24;;;;;;;3.10;2.80;;;;;;;;;;4908267;29;20111;-68
2023/12/15 23:50:49;;;;;;;3.53;2.70;;;;;;;;;;4906500;29;20107;-69
2023/12/15 23:53:15;;;;;;;3.88;2.80;;;;;;;;;;4907628;29;20047;-72
2023/12/15 23:55:41;;;;;;;3.47;2.90;;;;;;;;;;4907439;29;20537;-72
2023/12/15 23:58:06;;;;;;;4.53;2.95;;;;;;;;;;4906271;29;20036;-72
